KEEN/EEN METAR and TAF weather

Enter ICAO airport designator
Station Type Date Time Source
KEEN METAR 2021/07/29 19:17 UTC NOAA

KEEN 291917Z AUTO 18011G20KT 3SM +RA BR SCT016 OVC028 19/18 A2989 RMK AO2 PK WND 20026/1858 LTG DSNT NW PNO $


Station Type Date Time Source
KEEN Decoded METAR 2021/07/29 19:17 UTC NOAA

Keene, Dillant-Hopkins Airport, NH, United States (KEEN) 42-54N 072-16W
Jul 29, 2021 - 03:17 PM EDT / 2021.07.29 1917 UTC
Wind: from the S (180 degrees) at 13 MPH (11 KT) gusting to 23 MPH (20 KT):0
Visibility: 3 mile(s):0
Sky conditions: overcast
Weather: heavy rain; mist; Lightning observed
Temperature: 66 F (19 C)
Dew Point: 64 F (18 C)
Relative Humidity: 93%
Pressure (altimeter): 29.89 in. Hg (1012 hPa)
ob: KEEN 291917Z AUTO 18011G20KT 3SM +RA BR SCT016 OVC028 19/18 A2989 RMK AO2 PK WND 20026/1858 LTG DSNT NW PNO
cycle: 19

Station Type Date Time Source
KEEN TAF UTC NOAA

Error!

Example: see airport list